createdAt,value
2018-06-19T00:02:11.291Z,85.70
2018-06-19T00:04:39.607Z,85.20
2018-06-19T00:07:08.034Z,85.30
2018-06-19T00:09:36.386Z,84.70
2018-06-19T00:12:04.717Z,85.20
2018-06-19T00:14:33.000Z,85.40
2018-06-19T00:17:01.318Z,85.60
2018-06-19T00:19:30.520Z,85.40
2018-06-19T00:22:00.849Z,85.40
2018-06-19T00:24:29.179Z,85.60
2018-06-19T00:26:57.493Z,84.90
2018-06-19T00:29:25.842Z,86.00
2018-06-19T00:31:54.169Z,86.50
2018-06-19T00:34:22.469Z,87.30
2018-06-19T00:36:50.776Z,86.90
2018-06-19T00:39:19.052Z,86.50
2018-06-19T00:41:47.329Z,86.90
2018-06-19T00:44:15.608Z,86.70
2018-06-19T00:46:46.381Z,87.40
2018-06-19T00:49:14.650Z,87.80
2018-06-19T00:51:42.957Z,87.60
2018-06-19T00:54:11.241Z,87.70
2018-06-19T00:56:49.468Z,88.10
2018-06-19T00:59:17.757Z,87.40
2018-06-19T01:01:46.109Z,88.30
2018-06-19T01:04:14.646Z,88.70
2018-06-19T01:06:42.969Z,88.80
2018-06-19T01:09:11.253Z,88.30
2018-06-19T01:11:39.925Z,89.10
2018-06-19T01:14:08.226Z,89.20
2018-06-19T01:16:36.581Z,88.90
2018-06-19T01:19:04.914Z,88.80
2018-06-19T01:21:33.250Z,88.60
2018-06-19T01:24:01.538Z,88.10
2018-06-19T01:26:29.820Z,88.90
2018-06-19T01:28:58.103Z,88.90
2018-06-19T01:34:01.045Z,88.10
2018-06-19T01:36:29.391Z,87.80
2018-06-19T01:38:57.660Z,88.20
2018-06-19T01:41:25.973Z,88.10
2018-06-19T01:43:54.319Z,88.90
2018-06-19T01:46:22.601Z,89.20
2018-06-19T01:48:50.905Z,90.00
2018-06-19T01:51:19.254Z,90.00
2018-06-19T01:53:47.528Z,90.30
2018-06-19T01:56:15.812Z,90.00
2018-06-19T01:58:44.231Z,90.20
2018-06-19T02:01:12.735Z,89.80
2018-06-19T02:03:41.022Z,90.00
2018-06-19T02:06:09.316Z,90.30
2018-06-19T02:08:37.590Z,90.20
2018-06-19T02:11:05.895Z,90.10
2018-06-19T02:13:34.172Z,90.30
2018-06-19T02:16:02.441Z,90.20
2018-06-19T02:18:30.738Z,89.80
2018-06-19T02:20:59.010Z,89.90
2018-06-19T02:23:27.316Z,88.90
2018-06-19T02:25:55.610Z,89.40
2018-06-19T02:28:23.923Z,90.00
2018-06-19T02:30:52.275Z,89.60
2018-06-19T02:33:21.333Z,90.00
2018-06-19T02:35:49.619Z,90.30
2018-06-19T02:38:17.977Z,90.40
2018-06-19T02:40:46.234Z,90.60
2018-06-19T02:43:14.597Z,90.60
2018-06-19T02:45:42.891Z,90.80
2018-06-19T02:48:11.162Z,90.60
2018-06-19T02:50:39.486Z,90.30
2018-06-19T02:53:07.761Z,89.30
2018-06-19T02:55:36.096Z,90.10
2018-06-19T02:58:04.706Z,90.20
2018-06-19T03:00:33.272Z,90.20
2018-06-19T03:03:01.721Z,89.80
2018-06-19T03:05:29.992Z,90.00
2018-06-19T03:07:58.276Z,90.00
2018-06-19T03:10:26.548Z,90.10
2018-06-19T03:12:54.843Z,90.20
2018-06-19T03:15:23.221Z,90.30
2018-06-19T03:17:51.503Z,90.30
2018-06-19T03:20:19.819Z,90.20
2018-06-19T03:22:48.229Z,90.00
2018-06-19T03:25:16.529Z,90.20
2018-06-19T03:27:44.811Z,90.10
2018-06-19T03:30:13.165Z,89.90
2018-06-19T03:32:41.417Z,89.50
2018-06-19T03:35:09.723Z,89.60
2018-06-19T03:37:37.989Z,89.10
2018-06-19T03:40:06.312Z,89.30
2018-06-19T03:42:34.572Z,89.00
2018-06-19T03:45:02.877Z,89.00
2018-06-19T03:47:31.145Z,88.90
2018-06-19T03:49:59.430Z,88.70
2018-06-19T03:52:27.722Z,88.70
2018-06-19T03:54:56.018Z,87.80
2018-06-19T03:57:24.306Z,88.40
2018-06-19T03:59:52.602Z,88.90
2018-06-19T04:02:20.934Z,88.40
2018-06-19T04:04:49.200Z,88.10
2018-06-19T04:07:17.485Z,87.20
2018-06-19T04:09:45.791Z,87.90
2018-06-19T04:12:14.090Z,87.80
2018-06-19T04:14:42.404Z,87.70
2018-06-19T04:17:14.956Z,87.90
2018-06-19T04:19:43.218Z,87.60
2018-06-19T04:22:11.492Z,86.80
2018-06-19T04:24:39.762Z,86.40
2018-06-19T04:27:08.128Z,85.90
2018-06-19T04:29:36.425Z,85.50
2018-06-19T04:32:04.754Z,85.30
2018-06-19T04:34:33.054Z,84.20
2018-06-19T04:37:01.313Z,83.80
2018-06-19T04:39:29.603Z,82.40
2018-06-19T04:41:57.900Z,81.30
2018-06-19T04:44:26.149Z,80.60
2018-06-19T04:46:54.516Z,80.30
2018-06-19T04:49:22.813Z,79.80
2018-06-19T04:51:51.098Z,77.70
2018-06-19T04:54:19.389Z,77.70
2018-06-19T04:56:47.680Z,78.20
2018-06-19T04:59:15.938Z,80.10
2018-06-19T05:01:44.224Z,78.30
2018-06-19T05:04:12.577Z,77.80
2018-06-19T05:06:40.868Z,77.40
2018-06-19T05:09:15.729Z,78.20
2018-06-19T05:11:45.216Z,77.40
2018-06-19T05:14:13.504Z,76.30
2018-06-19T05:16:42.277Z,78.20
2018-06-19T05:19:10.928Z,78.40
2018-06-19T05:21:39.313Z,76.70
2018-06-19T05:24:07.611Z,74.90
2018-06-19T05:26:35.921Z,75.70
2018-06-19T05:29:04.221Z,72.50
2018-06-19T05:31:32.537Z,72.50
2018-06-19T05:34:00.961Z,71.80
2018-06-19T05:36:29.217Z,72.20
2018-06-19T05:38:57.522Z,71.20
2018-06-19T05:41:25.876Z,73.80
2018-06-19T05:43:54.150Z,74.30
2018-06-19T05:46:22.457Z,72.10
2018-06-19T05:48:50.744Z,72.80
2018-06-19T05:51:19.023Z,72.20
2018-06-19T05:53:47.315Z,73.20
2018-06-19T05:56:15.576Z,71.60
2018-06-19T05:58:43.896Z,74.00
2018-06-19T06:01:12.819Z,72.80
2018-06-19T06:03:41.115Z,71.50
2018-06-19T06:06:09.408Z,72.90
2018-06-19T06:08:37.692Z,70.00
2018-06-19T06:11:06.207Z,70.50
2018-06-19T06:13:34.552Z,71.30
2018-06-19T06:16:02.846Z,71.30
2018-06-19T06:18:31.118Z,71.40
2018-06-19T06:20:59.416Z,69.30
2018-06-19T06:23:27.679Z,66.70
2018-06-19T06:25:55.988Z,67.20
2018-06-19T06:28:24.318Z,66.40
2018-06-19T06:33:20.723Z,66.40
2018-06-19T06:35:49.029Z,67.00
2018-06-19T06:38:17.326Z,65.90
2018-06-19T06:40:45.612Z,62.70
2018-06-19T06:43:13.894Z,63.40
2018-06-19T06:45:42.211Z,63.30
2018-06-19T06:48:10.506Z,63.10
2018-06-19T06:50:38.798Z,62.20
2018-06-19T06:53:07.086Z,62.80
2018-06-19T06:55:35.358Z,62.20
2018-06-19T06:58:03.664Z,62.00
2018-06-19T07:00:32.084Z,60.90
2018-06-19T07:03:00.453Z,64.50
2018-06-19T07:05:29.191Z,64.80
2018-06-19T07:07:57.555Z,64.80
2018-06-19T07:10:25.838Z,64.60
2018-06-19T07:12:54.171Z,61.30
2018-06-19T07:15:22.451Z,59.90
2018-06-19T07:17:50.729Z,60.60
2018-06-19T07:20:19.045Z,59.50
2018-06-19T07:22:47.325Z,58.00
2018-06-19T07:25:15.602Z,58.20
2018-06-19T07:27:43.897Z,57.50
2018-06-19T07:30:12.210Z,56.90
2018-06-19T07:32:40.483Z,56.60
2018-06-19T07:35:08.772Z,56.90
2018-06-19T07:37:37.157Z,58.70
2018-06-19T07:40:05.483Z,58.30
2018-06-19T07:42:33.769Z,56.70
2018-06-19T07:45:02.468Z,57.60
2018-06-19T07:47:30.739Z,55.80
2018-06-19T07:49:59.036Z,55.60
2018-06-19T07:52:27.307Z,56.80
2018-06-19T07:54:55.584Z,56.80
2018-06-19T07:57:23.853Z,56.00
2018-06-19T07:59:52.133Z,56.90
2018-06-19T08:02:20.427Z,56.00
2018-06-19T08:04:48.707Z,55.30
2018-06-19T08:07:17.001Z,56.50
2018-06-19T08:09:45.247Z,54.60
2018-06-19T08:12:13.541Z,54.00
2018-06-19T08:14:41.809Z,53.30
2018-06-19T08:17:10.941Z,55.70
2018-06-19T08:19:39.220Z,52.90
2018-06-19T08:22:07.519Z,54.00
2018-06-19T08:24:35.804Z,57.40
2018-06-19T08:27:04.093Z,55.00
2018-06-19T08:29:32.375Z,55.10
2018-06-19T08:32:00.664Z,56.20
2018-06-19T08:34:28.939Z,55.10
2018-06-19T08:36:57.208Z,56.40
2018-06-19T08:39:25.483Z,53.20
2018-06-19T08:41:53.832Z,53.80
2018-06-19T08:44:22.057Z,56.10
2018-06-19T08:46:50.333Z,53.90
2018-06-19T08:49:18.604Z,54.60
2018-06-19T08:51:46.912Z,55.30
2018-06-19T08:54:15.184Z,53.80
2018-06-19T08:56:43.481Z,52.40
2018-06-19T08:59:11.745Z,53.40
2018-06-19T09:01:40.021Z,52.20
2018-06-19T09:04:08.332Z,53.60
2018-06-19T09:06:36.655Z,53.40
2018-06-19T09:09:07.631Z,53.70
2018-06-19T09:11:35.947Z,54.00
2018-06-19T09:14:04.215Z,55.00
2018-06-19T09:16:32.580Z,56.20
2018-06-19T09:19:03.829Z,53.40
2018-06-19T09:21:32.703Z,56.50
2018-06-19T09:24:00.998Z,55.90
2018-06-19T09:26:29.280Z,54.40
2018-06-19T09:28:57.687Z,53.80
2018-06-19T09:31:26.072Z,54.50
2018-06-19T09:33:54.330Z,54.70
2018-06-19T09:36:22.634Z,57.40
2018-06-19T09:38:50.913Z,55.20
2018-06-19T09:41:19.208Z,56.70
2018-06-19T09:43:47.486Z,53.50
2018-06-19T09:46:15.780Z,51.90
2018-06-19T09:48:44.519Z,52.10
2018-06-19T09:51:12.824Z,52.40
2018-06-19T09:53:41.206Z,52.20
2018-06-19T09:56:09.474Z,52.90
2018-06-19T09:58:38.092Z,52.70
2018-06-19T10:01:06.404Z,55.40
2018-06-19T10:03:34.829Z,54.00
2018-06-19T10:06:03.140Z,52.30
2018-06-19T10:08:31.429Z,50.40
2018-06-19T10:10:59.692Z,51.40
2018-06-19T10:13:27.996Z,54.50
2018-06-19T10:15:56.294Z,51.80
2018-06-19T10:18:24.612Z,52.20
2018-06-19T10:20:52.920Z,47.60
2018-06-19T10:23:21.187Z,49.40
2018-06-19T10:25:49.468Z,48.70
2018-06-19T10:28:17.774Z,49.20
2018-06-19T10:30:46.044Z,50.20
2018-06-19T10:33:14.337Z,52.00
2018-06-19T10:35:42.605Z,53.40
2018-06-19T10:38:10.934Z,52.20
2018-06-19T10:40:39.225Z,51.80
2018-06-19T10:43:07.555Z,52.60
2018-06-19T10:45:35.921Z,54.40
2018-06-19T10:48:04.226Z,52.00
2018-06-19T10:50:32.621Z,51.30
2018-06-19T10:53:00.906Z,52.00
2018-06-19T10:55:31.830Z,52.20
2018-06-19T10:58:00.156Z,51.70
2018-06-19T11:00:28.463Z,52.30
2018-06-19T11:02:56.729Z,53.20
2018-06-19T11:05:25.036Z,53.10
2018-06-19T11:07:53.322Z,54.80
2018-06-19T11:10:21.635Z,46.70
2018-06-19T11:12:49.917Z,49.60
2018-06-19T11:15:18.218Z,49.50
2018-06-19T11:17:46.537Z,48.20
2018-06-19T11:20:14.841Z,51.40
2018-06-19T11:22:43.142Z,49.30
2018-06-19T11:25:11.435Z,50.40
2018-06-19T11:27:39.709Z,48.90
2018-06-19T11:30:08.068Z,48.90
2018-06-19T11:32:36.637Z,48.20
2018-06-19T11:35:05.702Z,52.20
2018-06-19T11:37:33.972Z,52.60
2018-06-19T11:40:02.315Z,53.20
2018-06-19T11:42:30.626Z,52.20
2018-06-19T11:44:59.027Z,53.80
2018-06-19T11:47:27.323Z,51.20
2018-06-19T11:49:55.623Z,50.60
2018-06-19T11:52:23.921Z,50.80
2018-06-19T11:54:52.229Z,49.60
2018-06-19T11:57:20.531Z,49.20
2018-06-19T11:59:48.805Z,50.70
2018-06-19T12:02:17.089Z,51.20
2018-06-19T12:04:45.370Z,50.00
2018-06-19T12:07:13.645Z,51.60
2018-06-19T12:09:41.947Z,49.20
2018-06-19T12:12:10.232Z,49.90
2018-06-19T12:14:38.577Z,53.30
2018-06-19T12:17:06.891Z,50.80
2018-06-19T12:19:35.163Z,51.90
2018-06-19T12:22:03.477Z,52.30
2018-06-19T12:24:31.753Z,51.70
2018-06-19T12:27:00.044Z,52.30
2018-06-19T12:29:28.357Z,54.00
2018-06-19T12:31:56.651Z,51.70
2018-06-19T12:34:24.930Z,53.90
2018-06-19T12:36:53.219Z,51.30
2018-06-19T12:39:22.235Z,51.30
2018-06-19T12:41:50.553Z,50.60
2018-06-19T12:44:18.842Z,49.70
2018-06-19T12:46:47.140Z,47.10
2018-06-19T12:49:25.555Z,50.10
2018-06-19T12:52:05.132Z,49.20
2018-06-19T12:55:45.944Z,49.70
2018-06-19T12:58:14.461Z,51.30
2018-06-19T13:00:43.087Z,51.60
2018-06-19T13:05:56.999Z,54.30
2018-06-19T13:08:25.287Z,53.90
2018-06-19T13:10:53.559Z,50.00
2018-06-19T13:13:33.226Z,52.00
2018-06-19T13:16:01.539Z,50.60
2018-06-19T13:19:44.039Z,50.10
2018-06-19T13:22:12.331Z,48.80
2018-06-19T13:24:40.632Z,49.30
2018-06-19T13:27:08.929Z,49.80
2018-06-19T13:29:53.053Z,47.20
2018-06-19T13:32:21.460Z,50.20
2018-06-19T13:34:49.766Z,47.20
2018-06-19T13:37:18.680Z,47.40
2018-06-19T13:39:47.764Z,50.40
2018-06-19T13:42:41.613Z,49.90
2018-06-19T13:45:10.505Z,51.90
2018-06-19T13:47:38.785Z,49.10
2018-06-19T13:50:07.086Z,47.30
2018-06-19T13:52:35.414Z,47.80
2018-06-19T13:56:13.841Z,47.70
2018-06-19T13:58:42.148Z,48.50
2018-06-19T14:01:10.503Z,48.40
2018-06-19T14:03:38.778Z,49.00
2018-06-19T14:06:07.085Z,48.60
2018-06-19T14:09:00.111Z,48.90
2018-06-19T14:11:39.790Z,48.60
2018-06-19T14:14:08.109Z,49.20
2018-06-19T14:16:36.440Z,47.20
2018-06-19T14:19:04.737Z,47.10
2018-06-19T14:21:33.067Z,47.80
2018-06-19T14:24:01.340Z,47.20
2018-06-19T14:26:29.638Z,48.20
2018-06-19T14:28:59.075Z,47.80
2018-06-19T14:31:27.265Z,48.60
2018-06-19T14:33:55.627Z,48.60
2018-06-19T14:36:23.935Z,48.50
2018-06-19T14:38:52.228Z,45.90
2018-06-19T14:41:20.499Z,46.20
2018-06-19T14:43:48.806Z,46.80
2018-06-19T14:46:17.113Z,48.40
2018-06-19T14:48:45.446Z,46.30
2018-06-19T14:51:13.759Z,49.00
2018-06-19T14:53:42.060Z,46.00
2018-06-19T14:56:10.339Z,46.60
2018-06-19T14:58:38.625Z,47.80
2018-06-19T15:01:06.918Z,47.70
2018-06-19T15:03:35.276Z,48.10
2018-06-19T15:06:03.570Z,47.00
2018-06-19T15:08:31.875Z,48.60
2018-06-19T15:11:00.219Z,47.00
2018-06-19T15:13:28.494Z,47.20
2018-06-19T15:15:56.856Z,46.60
2018-06-19T15:18:25.201Z,46.40
2018-06-19T15:20:53.446Z,46.30
2018-06-19T15:23:21.726Z,45.60
2018-06-19T15:25:50.024Z,45.00
2018-06-19T15:28:18.317Z,47.40
2018-06-19T15:30:46.690Z,46.60
2018-06-19T15:33:14.978Z,47.00
2018-06-19T15:35:43.285Z,47.80
2018-06-19T15:38:11.558Z,48.20
2018-06-19T15:40:39.857Z,48.50
2018-06-19T15:43:08.157Z,48.10
2018-06-19T15:48:04.475Z,48.60
2018-06-19T15:50:32.802Z,49.10
2018-06-19T15:53:01.601Z,48.80
2018-06-19T15:55:29.899Z,49.40
2018-06-19T15:57:59.405Z,48.30
2018-06-19T16:00:27.792Z,46.30
2018-06-19T16:02:56.064Z,42.90
2018-06-19T16:05:24.425Z,40.50
2018-06-19T16:07:58.069Z,38.50
2018-06-19T16:10:26.354Z,34.00
2018-06-19T16:12:54.981Z,35.00
2018-06-19T16:15:24.458Z,34.40
2018-06-19T16:17:53.216Z,35.70
2018-06-19T16:22:50.171Z,31.60
2018-06-19T16:25:18.940Z,30.20
2018-06-19T16:27:47.668Z,29.60
2018-06-19T16:32:44.629Z,27.30
2018-06-19T16:35:13.435Z,29.10
2018-06-19T16:37:42.145Z,30.30
2018-06-19T16:40:10.743Z,32.20
2018-06-19T16:42:39.336Z,31.20
2018-06-19T16:45:07.930Z,30.50
2018-06-19T16:50:04.777Z,30.00
2018-06-19T16:52:33.563Z,28.70
2018-06-19T16:55:02.455Z,28.80
2018-06-19T16:57:31.136Z,28.80
2018-06-19T16:59:59.861Z,27.70
2018-06-19T17:02:28.115Z,27.20
2018-06-19T17:04:56.418Z,27.50
2018-06-19T17:07:24.734Z,28.40
2018-06-19T17:12:21.289Z,28.10
2018-06-19T17:14:49.573Z,29.50
2018-06-19T17:17:24.320Z,30.30
2018-06-19T17:19:52.602Z,29.60
2018-06-19T17:22:20.946Z,28.80
2018-06-19T17:24:49.317Z,30.50
2018-06-19T17:27:18.534Z,29.10
2018-06-19T17:29:47.360Z,29.40
2018-06-19T17:32:15.686Z,29.50
2018-06-19T17:34:44.128Z,28.90
2018-06-19T17:37:12.486Z,28.50
2018-06-19T17:39:41.730Z,28.90
2018-06-19T17:42:14.575Z,29.40
2018-06-19T17:44:42.966Z,29.60
2018-06-19T17:47:12.939Z,29.90
2018-06-19T17:49:41.725Z,30.80
2018-06-19T17:52:10.611Z,30.50
2018-06-19T17:54:40.411Z,29.90
2018-06-19T17:57:09.285Z,29.80
2018-06-19T17:59:37.665Z,30.00
2018-06-19T18:02:06.194Z,30.80
2018-06-19T18:04:34.515Z,29.90
2018-06-19T18:07:03.577Z,30.80
2018-06-19T18:09:31.893Z,31.40
2018-06-19T18:12:00.231Z,31.20
2018-06-19T18:14:29.779Z,33.40
2018-06-19T18:16:59.386Z,32.80
2018-06-19T18:19:27.693Z,33.10
2018-06-19T18:21:55.976Z,33.00
2018-06-19T18:24:24.717Z,33.70
2018-06-19T18:26:54.346Z,33.40
2018-06-19T18:29:22.772Z,32.90
2018-06-19T18:31:51.058Z,34.10
2018-06-19T18:34:20.175Z,34.40
2018-06-19T18:36:48.496Z,35.50
2018-06-19T18:39:16.815Z,37.10
2018-06-19T18:41:45.100Z,39.20
2018-06-19T18:44:13.412Z,41.60
2018-06-19T18:46:41.894Z,42.90
2018-06-19T18:49:10.132Z,44.20
2018-06-19T18:51:38.432Z,46.10
2018-06-19T18:54:06.804Z,47.10
2018-06-19T18:56:35.026Z,48.40
2018-06-19T18:59:03.356Z,49.20
2018-06-19T19:01:31.719Z,49.50
2018-06-19T19:04:01.027Z,50.60
2018-06-19T19:06:29.325Z,51.40
2018-06-19T19:08:57.929Z,53.30
2018-06-19T19:11:26.237Z,54.40
2018-06-19T19:13:54.574Z,55.90
2018-06-19T19:17:32.163Z,56.00
2018-06-19T19:20:00.461Z,55.90
2018-06-19T19:22:28.759Z,57.10
2018-06-19T19:24:57.077Z,57.00
2018-06-19T19:27:30.793Z,56.90
2018-06-19T19:29:59.089Z,57.60
2018-06-19T19:32:27.391Z,58.40
2018-06-19T19:34:55.673Z,59.20
2018-06-19T19:37:29.254Z,61.00
2018-06-19T19:39:58.246Z,60.80
2018-06-19T19:42:26.848Z,61.80
2018-06-19T19:44:55.150Z,62.40
2018-06-19T19:47:28.714Z,62.90
2018-06-19T19:49:57.274Z,62.40
2018-06-19T19:52:25.615Z,62.70
2018-06-19T19:54:53.899Z,63.80
2018-06-19T19:57:27.663Z,64.40
2018-06-19T19:59:56.706Z,63.80
2018-06-19T20:02:25.275Z,64.00
2018-06-19T20:04:53.605Z,65.30
2018-06-19T20:07:21.924Z,64.70
2018-06-19T20:09:50.189Z,64.90
2018-06-19T20:12:18.498Z,66.80
2018-06-19T20:14:46.838Z,67.40
2018-06-19T20:17:15.117Z,67.80
2018-06-19T20:19:43.436Z,67.10
2018-06-19T20:22:11.721Z,67.20
2018-06-19T20:24:40.027Z,67.90
2018-06-19T20:27:08.584Z,68.20
2018-06-19T20:29:36.877Z,67.80
2018-06-19T20:32:05.236Z,68.00
2018-06-19T20:34:34.492Z,68.60
2018-06-19T20:37:02.800Z,69.60
2018-06-19T20:39:31.088Z,70.70
2018-06-19T20:42:00.123Z,71.30
2018-06-19T20:44:28.433Z,71.80
2018-06-19T20:46:56.728Z,72.30
2018-06-19T20:49:25.161Z,72.40
2018-06-19T20:51:53.447Z,72.30
2018-06-19T20:54:22.355Z,72.60
2018-06-19T20:56:50.753Z,72.30
2018-06-19T20:59:19.067Z,72.60
2018-06-19T21:01:47.352Z,73.00
2018-06-19T21:04:15.662Z,73.20
2018-06-19T21:06:43.961Z,72.90
2018-06-19T21:09:12.258Z,72.90
2018-06-19T21:11:40.583Z,73.40
2018-06-19T21:14:08.858Z,73.70
2018-06-19T21:16:37.262Z,74.90
2018-06-19T21:19:05.996Z,75.40
2018-06-19T21:21:34.686Z,75.50
2018-06-19T21:24:03.685Z,76.10
2018-06-19T21:26:32.007Z,76.40
2018-06-19T21:29:00.642Z,75.80
2018-06-19T21:31:28.969Z,75.90
2018-06-19T21:33:57.922Z,75.80
2018-06-19T21:36:26.225Z,76.40
2018-06-19T21:38:54.536Z,76.30
2018-06-19T21:41:22.900Z,76.40
2018-06-19T21:43:51.213Z,76.20
2018-06-19T21:46:19.534Z,76.60
2018-06-19T21:48:47.944Z,77.10
2018-06-19T21:51:16.268Z,76.90
2018-06-19T21:53:44.554Z,77.00
2018-06-19T21:56:12.932Z,77.20
2018-06-19T21:58:41.416Z,77.00
2018-06-19T22:01:10.031Z,77.20
2018-06-19T22:03:38.326Z,77.60
2018-06-19T22:06:06.646Z,77.70
2018-06-19T22:08:40.160Z,78.00
2018-06-19T22:11:08.466Z,78.10
2018-06-19T22:13:36.766Z,78.30
2018-06-19T22:16:05.076Z,78.50
2018-06-19T22:18:33.374Z,78.60
2018-06-19T22:21:01.663Z,79.20
2018-06-19T22:23:29.985Z,79.10
2018-06-19T22:25:58.301Z,79.20
2018-06-19T22:28:26.681Z,79.30
2018-06-19T22:30:55.016Z,79.80
2018-06-19T22:33:23.749Z,79.70
2018-06-19T22:35:52.051Z,79.80
2018-06-19T22:38:20.376Z,79.80
2018-06-19T22:40:48.670Z,79.50
2018-06-19T22:43:17.288Z,80.00
2018-06-19T22:45:46.268Z,80.90
2018-06-19T22:48:14.608Z,81.30
2018-06-19T22:50:42.903Z,81.50
2018-06-19T22:53:11.901Z,81.80
2018-06-19T22:55:40.234Z,82.00
2018-06-19T22:58:08.535Z,81.80
2018-06-19T23:00:36.926Z,82.20
2018-06-19T23:03:05.958Z,82.30
2018-06-19T23:05:35.965Z,82.30
2018-06-19T23:08:05.275Z,82.60
2018-06-19T23:10:33.694Z,82.70
2018-06-19T23:13:03.057Z,82.70
2018-06-19T23:15:31.323Z,82.80
2018-06-19T23:17:59.620Z,82.60
2018-06-19T23:20:27.969Z,82.70
2018-06-19T23:22:56.287Z,82.70
2018-06-19T23:25:31.397Z,83.00
2018-06-19T23:28:06.295Z,83.40
2018-06-19T23:30:34.589Z,83.40
2018-06-19T23:33:02.859Z,83.50
2018-06-19T23:35:31.138Z,83.40
2018-06-19T23:37:59.418Z,83.70
2018-06-19T23:40:27.704Z,83.70
2018-06-19T23:42:56.000Z,83.60
2018-06-19T23:45:24.310Z,83.10
2018-06-19T23:47:52.581Z,83.20
2018-06-19T23:50:20.905Z,83.70
2018-06-19T23:52:49.199Z,83.90
2018-06-19T23:55:17.656Z,83.80
2018-06-19T23:57:45.943Z,84.00
